sensor_id;sensor_type;location;lat;lon;timestamp;temperature;humidity
51996;DHT22;38010;53.264;6.592;2023-03-25T00:00:19;15.90;99.90
51996;DHT22;38010;53.264;6.592;2023-03-25T00:02:50;15.80;99.90
51996;DHT22;38010;53.264;6.592;2023-03-25T00:05:18;15.80;99.90
51996;DHT22;38010;53.264;6.592;2023-03-25T00:07:46;15.80;99.90
51996;DHT22;38010;53.264;6.592;2023-03-25T00:10:13;15.80;99.90
51996;DHT22;38010;53.264;6.592;2023-03-25T00:12:39;15.80;99.90
51996;DHT22;38010;53.264;6.592;2023-03-25T00:15:06;15.80;99.90
51996;DHT22;38010;53.264;6.592;2023-03-25T00:17:32;15.80;99.90
51996;DHT22;38010;53.264;6.592;2023-03-25T00:19:58;15.80;99.90
51996;DHT22;38010;53.264;6.592;2023-03-25T00:22:26;15.80;99.90
51996;DHT22;38010;53.264;6.592;2023-03-25T00:24:52;15.80;99.90
51996;DHT22;38010;53.264;6.592;2023-03-25T00:27:18;15.70;99.90
51996;DHT22;38010;53.264;6.592;2023-03-25T00:29:45;15.70;99.90
51996;DHT22;38010;53.264;6.592;2023-03-25T00:32:12;15.70;99.90
51996;DHT22;38010;53.264;6.592;2023-03-25T00:34:38;15.70;99.90
51996;DHT22;38010;53.264;6.592;2023-03-25T00:37:12;15.70;99.90
51996;DHT22;38010;53.264;6.592;2023-03-25T00:39:43;15.70;99.90
51996;DHT22;38010;53.264;6.592;2023-03-25T00:42:09;15.60;99.90
51996;DHT22;38010;53.264;6.592;2023-03-25T00:44:35;15.70;99.90
51996;DHT22;38010;53.264;6.592;2023-03-25T00:47:01;15.70;99.90
51996;DHT22;38010;53.264;6.592;2023-03-25T00:49:27;15.70;99.90
51996;DHT22;38010;53.264;6.592;2023-03-25T00:51:54;15.70;99.90
51996;DHT22;38010;53.264;6.592;2023-03-25T00:54:21;15.60;99.90
51996;DHT22;38010;53.264;6.592;2023-03-25T00:56:48;15.60;99.90
51996;DHT22;38010;53.264;6.592;2023-03-25T00:59:14;15.60;99.90
51996;DHT22;38010;53.264;6.592;2023-03-25T01:01:40;15.60;99.90
51996;DHT22;38010;53.264;6.592;2023-03-25T01:04:06;15.60;99.90
51996;DHT22;38010;53.264;6.592;2023-03-25T01:06:39;15.50;99.90
51996;DHT22;38010;53.264;6.592;2023-03-25T01:09:12;15.60;99.90
51996;DHT22;38010;53.264;6.592;2023-03-25T01:11:39;15.60;99.90
51996;DHT22;38010;53.264;6.592;2023-03-25T01:14:07;15.60;99.90
51996;DHT22;38010;53.264;6.592;2023-03-25T01:16:34;15.60;99.90
51996;DHT22;38010;53.264;6.592;2023-03-25T01:19:00;15.50;99.90
51996;DHT22;38010;53.264;6.592;2023-03-25T01:21:25;15.50;99.90
51996;DHT22;38010;53.264;6.592;2023-03-25T01:23:51;15.50;99.90
51996;DHT22;38010;53.264;6.592;2023-03-25T01:26:17;15.50;99.90
51996;DHT22;38010;53.264;6.592;2023-03-25T01:28:44;15.50;99.90
51996;DHT22;38010;53.264;6.592;2023-03-25T01:31:13;15.50;99.90
51996;DHT22;38010;53.264;6.592;2023-03-25T01:33:39;15.50;99.90
51996;DHT22;38010;53.264;6.592;2023-03-25T01:36:06;15.50;99.90
51996;DHT22;38010;53.264;6.592;2023-03-25T01:38:38;15.50;99.90
51996;DHT22;38010;53.264;6.592;2023-03-25T01:41:04;15.40;99.90
51996;DHT22;38010;53.264;6.592;2023-03-25T01:43:31;15.50;99.90
51996;DHT22;38010;53.264;6.592;2023-03-25T01:45:58;15.50;99.90
51996;DHT22;38010;53.264;6.592;2023-03-25T01:48:28;15.40;99.90
51996;DHT22;38010;53.264;6.592;2023-03-25T01:51:18;15.50;99.90
51996;DHT22;38010;53.264;6.592;2023-03-25T01:53:44;15.40;99.90
51996;DHT22;38010;53.264;6.592;2023-03-25T01:56:14;15.40;99.90
51996;DHT22;38010;53.264;6.592;2023-03-25T01:58:42;15.40;99.90
51996;DHT22;38010;53.264;6.592;2023-03-25T02:01:08;15.40;99.90
51996;DHT22;38010;53.264;6.592;2023-03-25T02:03:40;15.40;99.90
51996;DHT22;38010;53.264;6.592;2023-03-25T02:06:22;15.40;99.90
51996;DHT22;38010;53.264;6.592;2023-03-25T02:08:54;15.40;99.90
51996;DHT22;38010;53.264;6.592;2023-03-25T02:11:21;15.40;99.90
51996;DHT22;38010;53.264;6.592;2023-03-25T02:13:50;15.30;99.90
51996;DHT22;38010;53.264;6.592;2023-03-25T02:16:22;15.30;99.90
51996;DHT22;38010;53.264;6.592;2023-03-25T02:30:51;15.30;99.90
51996;DHT22;38010;53.264;6.592;2023-03-25T02:41:57;15.30;99.90
51996;DHT22;38010;53.264;6.592;2023-03-25T02:44:40;15.30;99.90
51996;DHT22;38010;53.264;6.592;2023-03-25T02:47:15;15.30;99.90
51996;DHT22;38010;53.264;6.592;2023-03-25T02:49:46;15.20;99.90
51996;DHT22;38010;53.264;6.592;2023-03-25T02:52:36;15.30;99.90
51996;DHT22;38010;53.264;6.592;2023-03-25T02:55:05;15.20;99.90
51996;DHT22;38010;53.264;6.592;2023-03-25T02:57:38;15.20;99.90
51996;DHT22;38010;53.264;6.592;2023-03-25T03:00:06;15.20;99.90
51996;DHT22;38010;53.264;6.592;2023-03-25T03:02:43;15.20;99.90
51996;DHT22;38010;53.264;6.592;2023-03-25T03:05:41;15.20;99.90
51996;DHT22;38010;53.264;6.592;2023-03-25T03:16:21;15.20;99.90
51996;DHT22;38010;53.264;6.592;2023-03-25T03:18:55;15.20;99.90
51996;DHT22;38010;53.264;6.592;2023-03-25T03:21:35;15.20;99.90
51996;DHT22;38010;53.264;6.592;2023-03-25T03:29:36;15.20;99.90
51996;DHT22;38010;53.264;6.592;2023-03-25T03:32:12;15.20;99.90
51996;DHT22;38010;53.264;6.592;2023-03-25T03:37:17;15.20;99.90
51996;DHT22;38010;53.264;6.592;2023-03-25T03:39:47;15.10;99.90
51996;DHT22;38010;53.264;6.592;2023-03-25T03:42:15;15.10;99.90
51996;DHT22;38010;53.264;6.592;2023-03-25T03:44:48;15.10;99.90
51996;DHT22;38010;53.264;6.592;2023-03-25T03:47:21;15.10;99.90
51996;DHT22;38010;53.264;6.592;2023-03-25T03:49:54;15.10;99.90
51996;DHT22;38010;53.264;6.592;2023-03-25T03:52:34;15.10;99.90
51996;DHT22;38010;53.264;6.592;2023-03-25T03:55:24;15.10;99.90
51996;DHT22;38010;53.264;6.592;2023-03-25T03:57:57;15.10;99.90
51996;DHT22;38010;53.264;6.592;2023-03-25T04:00:28;15.10;99.90
51996;DHT22;38010;53.264;6.592;2023-03-25T04:03:33;15.10;99.90
51996;DHT22;38010;53.264;6.592;2023-03-25T04:06:26;15.10;99.90
51996;DHT22;38010;53.264;6.592;2023-03-25T04:08:58;15.10;99.90
51996;DHT22;38010;53.264;6.592;2023-03-25T04:12:13;15.10;99.90
51996;DHT22;38010;53.264;6.592;2023-03-25T04:14:41;15.10;99.90
51996;DHT22;38010;53.264;6.592;2023-03-25T04:17:07;15.10;99.90
51996;DHT22;38010;53.264;6.592;2023-03-25T04:19:33;15.10;99.90
51996;DHT22;38010;53.264;6.592;2023-03-25T04:22:00;15.00;99.90
51996;DHT22;38010;53.264;6.592;2023-03-25T04:24:27;15.00;99.90
51996;DHT22;38010;53.264;6.592;2023-03-25T04:27:00;15.00;99.90
51996;DHT22;38010;53.264;6.592;2023-03-25T04:29:29;15.00;99.90
51996;DHT22;38010;53.264;6.592;2023-03-25T04:31:57;15.00;99.90
51996;DHT22;38010;53.264;6.592;2023-03-25T04:34:23;15.00;99.90
51996;DHT22;38010;53.264;6.592;2023-03-25T04:36:49;15.00;99.90
51996;DHT22;38010;53.264;6.592;2023-03-25T04:39:16;15.00;99.90
51996;DHT22;38010;53.264;6.592;2023-03-25T04:41:43;15.00;99.90
51996;DHT22;38010;53.264;6.592;2023-03-25T04:44:09;15.00;99.90
51996;DHT22;38010;53.264;6.592;2023-03-25T04:46:35;15.00;99.90
51996;DHT22;38010;53.264;6.592;2023-03-25T04:49:05;15.00;99.90
51996;DHT22;38010;53.264;6.592;2023-03-25T04:51:31;15.00;99.90
51996;DHT22;38010;53.264;6.592;2023-03-25T04:53:58;15.00;99.90
51996;DHT22;38010;53.264;6.592;2023-03-25T04:56:23;14.90;99.90
51996;DHT22;38010;53.264;6.592;2023-03-25T04:58:49;15.00;99.90
51996;DHT22;38010;53.264;6.592;2023-03-25T05:01:21;14.90;99.90
51996;DHT22;38010;53.264;6.592;2023-03-25T05:03:47;14.90;99.90
51996;DHT22;38010;53.264;6.592;2023-03-25T05:06:16;14.90;99.90
51996;DHT22;38010;53.264;6.592;2023-03-25T05:08:42;14.90;99.90
51996;DHT22;38010;53.264;6.592;2023-03-25T05:11:08;14.90;99.90
51996;DHT22;38010;53.264;6.592;2023-03-25T05:13:33;14.90;99.90
51996;DHT22;38010;53.264;6.592;2023-03-25T05:15:59;14.90;99.90
51996;DHT22;38010;53.264;6.592;2023-03-25T05:18:25;14.90;99.90
51996;DHT22;38010;53.264;6.592;2023-03-25T05:20:51;14.90;99.90
51996;DHT22;38010;53.264;6.592;2023-03-25T05:23:18;14.90;99.90
51996;DHT22;38010;53.264;6.592;2023-03-25T05:25:48;14.90;99.90
51996;DHT22;38010;53.264;6.592;2023-03-25T05:28:15;14.90;99.90
51996;DHT22;38010;53.264;6.592;2023-03-25T05:30:42;14.90;99.90
51996;DHT22;38010;53.264;6.592;2023-03-25T05:33:12;14.90;99.90
51996;DHT22;38010;53.264;6.592;2023-03-25T05:35:41;14.90;99.90
51996;DHT22;38010;53.264;6.592;2023-03-25T05:38:08;14.80;99.90
51996;DHT22;38010;53.264;6.592;2023-03-25T05:40:37;14.90;99.90
51996;DHT22;38010;53.264;6.592;2023-03-25T05:43:02;14.90;99.90
51996;DHT22;38010;53.264;6.592;2023-03-25T05:45:31;14.90;99.90
51996;DHT22;38010;53.264;6.592;2023-03-25T05:47:57;14.90;99.90
51996;DHT22;38010;53.264;6.592;2023-03-25T05:50:25;14.80;99.90
51996;DHT22;38010;53.264;6.592;2023-03-25T05:52:52;14.90;99.90
51996;DHT22;38010;53.264;6.592;2023-03-25T05:55:20;14.90;99.90
51996;DHT22;38010;53.264;6.592;2023-03-25T05:57:46;14.80;99.90
51996;DHT22;38010;53.264;6.592;2023-03-25T06:00:13;14.80;99.90
51996;DHT22;38010;53.264;6.592;2023-03-25T06:02:40;14.80;99.90
51996;DHT22;38010;53.264;6.592;2023-03-25T06:05:12;14.80;99.90
51996;DHT22;38010;53.264;6.592;2023-03-25T06:07:43;14.80;99.90
51996;DHT22;38010;53.264;6.592;2023-03-25T06:10:11;14.80;99.90
51996;DHT22;38010;53.264;6.592;2023-03-25T06:12:37;14.80;99.90
51996;DHT22;38010;53.264;6.592;2023-03-25T06:15:06;14.80;99.90
51996;DHT22;38010;53.264;6.592;2023-03-25T06:17:32;14.80;99.90
51996;DHT22;38010;53.264;6.592;2023-03-25T06:19:57;14.80;99.90
51996;DHT22;38010;53.264;6.592;2023-03-25T06:22:25;14.80;99.90
51996;DHT22;38010;53.264;6.592;2023-03-25T06:24:51;14.80;99.90
51996;DHT22;38010;53.264;6.592;2023-03-25T06:27:18;14.80;99.90
51996;DHT22;38010;53.264;6.592;2023-03-25T06:29:44;14.80;99.90
51996;DHT22;38010;53.264;6.592;2023-03-25T06:32:12;14.80;99.90
51996;DHT22;38010;53.264;6.592;2023-03-25T06:34:37;14.80;99.90
51996;DHT22;38010;53.264;6.592;2023-03-25T06:37:04;14.80;99.90
51996;DHT22;38010;53.264;6.592;2023-03-25T06:39:30;14.80;99.90
51996;DHT22;38010;53.264;6.592;2023-03-25T06:41:59;14.80;99.90
51996;DHT22;38010;53.264;6.592;2023-03-25T06:44:26;14.80;99.90
51996;DHT22;38010;53.264;6.592;2023-03-25T06:46:52;14.80;99.90
51996;DHT22;38010;53.264;6.592;2023-03-25T06:49:18;14.70;99.90
51996;DHT22;38010;53.264;6.592;2023-03-25T06:51:44;14.80;99.90
51996;DHT22;38010;53.264;6.592;2023-03-25T06:54:10;14.70;99.90
51996;DHT22;38010;53.264;6.592;2023-03-25T06:56:36;14.80;99.90
51996;DHT22;38010;53.264;6.592;2023-03-25T06:59:02;14.80;99.90
51996;DHT22;38010;53.264;6.592;2023-03-25T07:01:28;14.80;99.90
51996;DHT22;38010;53.264;6.592;2023-03-25T07:03:54;14.80;99.90
51996;DHT22;38010;53.264;6.592;2023-03-25T07:06:21;14.80;99.90
51996;DHT22;38010;53.264;6.592;2023-03-25T07:08:48;14.80;99.90
51996;DHT22;38010;53.264;6.592;2023-03-25T07:11:15;14.80;99.90
51996;DHT22;38010;53.264;6.592;2023-03-25T07:13:41;14.80;99.90
51996;DHT22;38010;53.264;6.592;2023-03-25T07:16:07;15.00;99.90
51996;DHT22;38010;53.264;6.592;2023-03-25T07:18:33;14.80;99.90
51996;DHT22;38010;53.264;6.592;2023-03-25T07:21:00;14.90;99.90
51996;DHT22;38010;53.264;6.592;2023-03-25T07:23:26;14.80;99.90
51996;DHT22;38010;53.264;6.592;2023-03-25T07:25:52;14.80;99.90
51996;DHT22;38010;53.264;6.592;2023-03-25T07:28:18;14.90;99.90
51996;DHT22;38010;53.264;6.592;2023-03-25T07:30:44;14.80;99.90
51996;DHT22;38010;53.264;6.592;2023-03-25T07:33:09;14.80;99.90
51996;DHT22;38010;53.264;6.592;2023-03-25T07:35:35;14.90;99.90
51996;DHT22;38010;53.264;6.592;2023-03-25T07:38:01;14.80;99.90
51996;DHT22;38010;53.264;6.592;2023-03-25T07:40:27;14.80;99.90
51996;DHT22;38010;53.264;6.592;2023-03-25T07:42:53;14.80;99.90
51996;DHT22;38010;53.264;6.592;2023-03-25T07:45:19;14.80;99.90
51996;DHT22;38010;53.264;6.592;2023-03-25T07:47:44;14.80;99.90
51996;DHT22;38010;53.264;6.592;2023-03-25T07:50:19;14.80;99.90
51996;DHT22;38010;53.264;6.592;2023-03-25T07:52:45;14.80;99.90
51996;DHT22;38010;53.264;6.592;2023-03-25T07:55:11;14.80;99.90
51996;DHT22;38010;53.264;6.592;2023-03-25T07:57:39;14.80;99.90
51996;DHT22;38010;53.264;6.592;2023-03-25T08:00:06;14.80;99.90
51996;DHT22;38010;53.264;6.592;2023-03-25T08:02:32;14.70;99.90
51996;DHT22;38010;53.264;6.592;2023-03-25T08:04:58;14.80;99.90
51996;DHT22;38010;53.264;6.592;2023-03-25T08:07:24;14.80;99.90
51996;DHT22;38010;53.264;6.592;2023-03-25T08:09:53;14.80;99.90
51996;DHT22;38010;53.264;6.592;2023-03-25T08:12:18;14.80;99.90
51996;DHT22;38010;53.264;6.592;2023-03-25T08:14:44;14.80;99.90
51996;DHT22;38010;53.264;6.592;2023-03-25T08:17:10;14.80;99.90
51996;DHT22;38010;53.264;6.592;2023-03-25T08:19:35;14.80;99.90
51996;DHT22;38010;53.264;6.592;2023-03-25T08:22:01;14.80;99.90
51996;DHT22;38010;53.264;6.592;2023-03-25T08:24:27;14.80;99.90
51996;DHT22;38010;53.264;6.592;2023-03-25T08:26:54;14.80;99.90
51996;DHT22;38010;53.264;6.592;2023-03-25T08:29:20;14.70;99.90
51996;DHT22;38010;53.264;6.592;2023-03-25T08:31:48;14.80;99.90
51996;DHT22;38010;53.264;6.592;2023-03-25T08:34:18;14.80;99.90
51996;DHT22;38010;53.264;6.592;2023-03-25T08:36:44;14.80;99.90
51996;DHT22;38010;53.264;6.592;2023-03-25T08:39:10;14.70;99.90
51996;DHT22;38010;53.264;6.592;2023-03-25T08:41:38;14.80;99.90
51996;DHT22;38010;53.264;6.592;2023-03-25T08:44:04;14.80;99.90
51996;DHT22;38010;53.264;6.592;2023-03-25T08:46:31;14.80;99.90
51996;DHT22;38010;53.264;6.592;2023-03-25T08:48:56;14.80;99.90
51996;DHT22;38010;53.264;6.592;2023-03-25T08:51:22;14.80;99.90
51996;DHT22;38010;53.264;6.592;2023-03-25T08:53:48;14.70;99.90
51996;DHT22;38010;53.264;6.592;2023-03-25T08:56:14;14.80;99.90
51996;DHT22;38010;53.264;6.592;2023-03-25T08:58:40;14.80;99.90
51996;DHT22;38010;53.264;6.592;2023-03-25T09:01:06;14.80;99.90
51996;DHT22;38010;53.264;6.592;2023-03-25T09:03:32;14.80;99.90
51996;DHT22;38010;53.264;6.592;2023-03-25T09:06:02;14.80;99.90
51996;DHT22;38010;53.264;6.592;2023-03-25T09:08:27;14.80;99.90
51996;DHT22;38010;53.264;6.592;2023-03-25T09:10:56;14.90;99.90
51996;DHT22;38010;53.264;6.592;2023-03-25T09:30:26;14.90;99.90
51996;DHT22;38010;53.264;6.592;2023-03-25T09:32:51;15.00;99.90
51996;DHT22;38010;53.264;6.592;2023-03-25T09:35:17;15.00;99.90
51996;DHT22;38010;53.264;6.592;2023-03-25T09:37:43;14.90;99.90
51996;DHT22;38010;53.264;6.592;2023-03-25T09:40:13;15.00;99.90
51996;DHT22;38010;53.264;6.592;2023-03-25T09:42:55;14.90;99.90
51996;DHT22;38010;53.264;6.592;2023-03-25T09:45:38;15.00;99.90
51996;DHT22;38010;53.264;6.592;2023-03-25T09:50:42;15.00;99.90
51996;DHT22;38010;53.264;6.592;2023-03-25T09:55:41;15.00;99.90
51996;DHT22;38010;53.264;6.592;2023-03-25T09:58:37;15.00;99.90
51996;DHT22;38010;53.264;6.592;2023-03-25T10:12:08;15.50;99.90
51996;DHT22;38010;53.264;6.592;2023-03-25T10:14:40;15.40;99.90
51996;DHT22;38010;53.264;6.592;2023-03-25T10:25:44;15.20;99.90
51996;DHT22;38010;53.264;6.592;2023-03-25T10:28:17;15.20;99.90
51996;DHT22;38010;53.264;6.592;2023-03-25T10:30:50;15.20;99.90
51996;DHT22;38010;53.264;6.592;2023-03-25T10:33:36;15.20;99.90
51996;DHT22;38010;53.264;6.592;2023-03-25T10:36:05;15.10;99.90
51996;DHT22;38010;53.264;6.592;2023-03-25T10:38:34;15.10;99.90
51996;DHT22;38010;53.264;6.592;2023-03-25T10:41:22;15.10;99.90
51996;DHT22;38010;53.264;6.592;2023-03-25T10:43:49;15.10;99.90
51996;DHT22;38010;53.264;6.592;2023-03-25T10:46:32;15.10;99.90
51996;DHT22;38010;53.264;6.592;2023-03-25T10:49:01;15.10;99.90
51996;DHT22;38010;53.264;6.592;2023-03-25T10:51:29;15.00;99.90
51996;DHT22;38010;53.264;6.592;2023-03-25T10:53:56;15.00;99.90
51996;DHT22;38010;53.264;6.592;2023-03-25T10:56:33;15.00;99.90
51996;DHT22;38010;53.264;6.592;2023-03-25T10:59:04;15.00;99.90
51996;DHT22;38010;53.264;6.592;2023-03-25T11:01:37;15.00;99.90
51996;DHT22;38010;53.264;6.592;2023-03-25T11:04:05;15.00;99.90
51996;DHT22;38010;53.264;6.592;2023-03-25T11:06:40;15.00;99.90
51996;DHT22;38010;53.264;6.592;2023-03-25T11:09:15;15.00;99.90
51996;DHT22;38010;53.264;6.592;2023-03-25T11:11:43;15.00;99.90
51996;DHT22;38010;53.264;6.592;2023-03-25T11:14:12;15.00;99.90
51996;DHT22;38010;53.264;6.592;2023-03-25T11:17:00;15.00;99.90
51996;DHT22;38010;53.264;6.592;2023-03-25T11:19:35;15.00;99.90
51996;DHT22;38010;53.264;6.592;2023-03-25T11:25:18;15.00;99.90
51996;DHT22;38010;53.264;6.592;2023-03-25T11:27:48;15.00;99.90
51996;DHT22;38010;53.264;6.592;2023-03-25T11:30:21;15.00;99.90
51996;DHT22;38010;53.264;6.592;2023-03-25T11:33:03;15.00;99.90
51996;DHT22;38010;53.264;6.592;2023-03-25T11:35:32;15.00;99.90
51996;DHT22;38010;53.264;6.592;2023-03-25T11:38:11;15.00;99.90
51996;DHT22;38010;53.264;6.592;2023-03-25T11:40:52;15.00;99.90
51996;DHT22;38010;53.264;6.592;2023-03-25T11:43:27;15.00;99.90
51996;DHT22;38010;53.264;6.592;2023-03-25T11:45:56;15.00;99.90
51996;DHT22;38010;53.264;6.592;2023-03-25T11:48:23;15.00;99.90
51996;DHT22;38010;53.264;6.592;2023-03-25T11:50:57;15.00;99.90
51996;DHT22;38010;53.264;6.592;2023-03-25T11:53:27;15.00;99.90
51996;DHT22;38010;53.264;6.592;2023-03-25T11:56:02;15.00;99.90
51996;DHT22;38010;53.264;6.592;2023-03-25T11:58:32;15.10;99.90
51996;DHT22;38010;53.264;6.592;2023-03-25T12:01:05;15.10;99.90
51996;DHT22;38010;53.264;6.592;2023-03-25T12:03:33;15.10;99.90
51996;DHT22;38010;53.264;6.592;2023-03-25T12:06:03;15.10;99.90
51996;DHT22;38010;53.264;6.592;2023-03-25T12:08:55;15.10;99.90
51996;DHT22;38010;53.264;6.592;2023-03-25T12:14:11;15.00;99.90
51996;DHT22;38010;53.264;6.592;2023-03-25T12:25:35;15.00;99.90
51996;DHT22;38010;53.264;6.592;2023-03-25T12:31:20;15.00;99.90
51996;DHT22;38010;53.264;6.592;2023-03-25T12:42:53;15.00;99.90
51996;DHT22;38010;53.264;6.592;2023-03-25T12:50:52;14.90;99.90
51996;DHT22;38010;53.264;6.592;2023-03-25T12:53:47;15.00;99.90
51996;DHT22;38010;53.264;6.592;2023-03-25T12:56:38;15.00;99.90
51996;DHT22;38010;53.264;6.592;2023-03-25T13:01:50;14.80;99.90
51996;DHT22;38010;53.264;6.592;2023-03-25T13:20:11;14.60;99.90
51996;DHT22;38010;53.264;6.592;2023-03-25T13:22:41;14.70;99.90
51996;DHT22;38010;53.264;6.592;2023-03-25T13:28:13;14.60;99.90
51996;DHT22;38010;53.264;6.592;2023-03-25T14:01:34;14.50;99.90
51996;DHT22;38010;53.264;6.592;2023-03-25T14:04:28;14.50;99.90
51996;DHT22;38010;53.264;6.592;2023-03-25T14:13:04;14.50;99.90
51996;DHT22;38010;53.264;6.592;2023-03-25T14:15:33;14.40;99.90
51996;DHT22;38010;53.264;6.592;2023-03-25T14:18:01;14.40;99.90
51996;DHT22;38010;53.264;6.592;2023-03-25T14:20:35;14.50;99.90
51996;DHT22;38010;53.264;6.592;2023-03-25T14:23:05;14.50;99.90
51996;DHT22;38010;53.264;6.592;2023-03-25T14:28:03;14.80;99.90
51996;DHT22;38010;53.264;6.592;2023-03-25T14:30:31;14.90;99.90
51996;DHT22;38010;53.264;6.592;2023-03-25T14:32:57;14.90;99.90
51996;DHT22;38010;53.264;6.592;2023-03-25T14:38:19;14.90;99.90
51996;DHT22;38010;53.264;6.592;2023-03-25T14:40:49;14.90;99.90
51996;DHT22;38010;53.264;6.592;2023-03-25T14:48:43;14.70;99.90
51996;DHT22;38010;53.264;6.592;2023-03-25T14:54:29;14.60;99.90
51996;DHT22;38010;53.264;6.592;2023-03-25T14:57:14;14.60;99.90
51996;DHT22;38010;53.264;6.592;2023-03-25T14:59:49;14.60;99.90
51996;DHT22;38010;53.264;6.592;2023-03-25T15:02:19;14.60;99.90
51996;DHT22;38010;53.264;6.592;2023-03-25T15:04:57;14.60;99.90
51996;DHT22;38010;53.264;6.592;2023-03-25T15:10:28;14.60;99.90
51996;DHT22;38010;53.264;6.592;2023-03-25T15:15:30;14.50;99.90
51996;DHT22;38010;53.264;6.592;2023-03-25T15:17:57;14.50;99.90
51996;DHT22;38010;53.264;6.592;2023-03-25T15:23:19;14.50;99.90
51996;DHT22;38010;53.264;6.592;2023-03-25T15:25:48;14.50;99.90
51996;DHT22;38010;53.264;6.592;2023-03-25T15:31:11;14.50;99.90
51996;DHT22;38010;53.264;6.592;2023-03-25T15:34:03;14.40;99.90
51996;DHT22;38010;53.264;6.592;2023-03-25T15:47:36;14.60;99.90
51996;DHT22;38010;53.264;6.592;2023-03-25T15:51:15;14.60;99.90
51996;DHT22;38010;53.264;6.592;2023-03-25T15:56:11;14.70;99.90
51996;DHT22;38010;53.264;6.592;2023-03-25T16:01:29;14.80;99.90
51996;DHT22;38010;53.264;6.592;2023-03-25T16:04:10;14.80;99.90
51996;DHT22;38010;53.264;6.592;2023-03-25T16:06:43;14.90;99.90
51996;DHT22;38010;53.264;6.592;2023-03-25T16:09:27;14.90;99.90
51996;DHT22;38010;53.264;6.592;2023-03-25T16:11:59;14.90;99.90
51996;DHT22;38010;53.264;6.592;2023-03-25T16:14:29;14.90;99.90
51996;DHT22;38010;53.264;6.592;2023-03-25T16:16:57;14.90;99.90
51996;DHT22;38010;53.264;6.592;2023-03-25T16:19:35;14.90;99.90
51996;DHT22;38010;53.264;6.592;2023-03-25T16:22:44;14.80;99.90
51996;DHT22;38010;53.264;6.592;2023-03-25T16:25:12;14.80;99.90
51996;DHT22;38010;53.264;6.592;2023-03-25T16:27:44;14.90;99.90
51996;DHT22;38010;53.264;6.592;2023-03-25T16:30:25;14.90;99.90
51996;DHT22;38010;53.264;6.592;2023-03-25T16:32:51;14.90;99.90
51996;DHT22;38010;53.264;6.592;2023-03-25T16:35:25;14.90;99.90
51996;DHT22;38010;53.264;6.592;2023-03-25T16:37:56;14.80;99.90
51996;DHT22;38010;53.264;6.592;2023-03-25T16:40:37;14.80;99.90
51996;DHT22;38010;53.264;6.592;2023-03-25T16:43:20;14.80;99.90
51996;DHT22;38010;53.264;6.592;2023-03-25T16:45:48;14.70;99.90
51996;DHT22;38010;53.264;6.592;2023-03-25T16:48:29;14.70;99.90
51996;DHT22;38010;53.264;6.592;2023-03-25T16:51:06;14.70;99.90
51996;DHT22;38010;53.264;6.592;2023-03-25T16:53:34;14.70;99.90
51996;DHT22;38010;53.264;6.592;2023-03-25T16:58:33;14.60;99.90
51996;DHT22;38010;53.264;6.592;2023-03-25T17:01:05;14.60;99.90
51996;DHT22;38010;53.264;6.592;2023-03-25T17:03:44;14.60;99.90
51996;DHT22;38010;53.264;6.592;2023-03-25T17:06:29;14.60;99.90
51996;DHT22;38010;53.264;6.592;2023-03-25T17:09:00;14.60;99.90
51996;DHT22;38010;53.264;6.592;2023-03-25T17:11:30;14.50;99.90
51996;DHT22;38010;53.264;6.592;2023-03-25T17:14:03;14.60;99.90
51996;DHT22;38010;53.264;6.592;2023-03-25T17:16:31;14.50;99.90
51996;DHT22;38010;53.264;6.592;2023-03-25T17:18:58;14.50;99.90
51996;DHT22;38010;53.264;6.592;2023-03-25T17:21:30;14.50;99.90
51996;DHT22;38010;53.264;6.592;2023-03-25T17:24:01;14.50;99.90
51996;DHT22;38010;53.264;6.592;2023-03-25T17:26:33;14.50;99.90
51996;DHT22;38010;53.264;6.592;2023-03-25T17:29:17;14.40;99.90
51996;DHT22;38010;53.264;6.592;2023-03-25T17:31:56;14.40;99.90
51996;DHT22;38010;53.264;6.592;2023-03-25T17:34:24;14.40;99.90
51996;DHT22;38010;53.264;6.592;2023-03-25T17:37:00;14.40;99.90
51996;DHT22;38010;53.264;6.592;2023-03-25T17:39:33;14.40;99.90
51996;DHT22;38010;53.264;6.592;2023-03-25T17:42:03;14.40;99.90
51996;DHT22;38010;53.264;6.592;2023-03-25T17:44:35;14.40;99.90
51996;DHT22;38010;53.264;6.592;2023-03-25T17:47:05;14.40;99.90
51996;DHT22;38010;53.264;6.592;2023-03-25T17:49:32;14.30;99.90
51996;DHT22;38010;53.264;6.592;2023-03-25T17:51:57;14.40;99.90
51996;DHT22;38010;53.264;6.592;2023-03-25T17:54:24;14.40;99.90
51996;DHT22;38010;53.264;6.592;2023-03-25T17:56:51;14.30;99.90
51996;DHT22;38010;53.264;6.592;2023-03-25T17:59:21;14.30;99.90
51996;DHT22;38010;53.264;6.592;2023-03-25T18:01:48;14.30;99.90
51996;DHT22;38010;53.264;6.592;2023-03-25T18:04:15;14.30;99.90
51996;DHT22;38010;53.264;6.592;2023-03-25T18:06:42;14.30;99.90
51996;DHT22;38010;53.264;6.592;2023-03-25T18:09:21;14.30;99.90
51996;DHT22;38010;53.264;6.592;2023-03-25T18:11:51;14.30;99.90
51996;DHT22;38010;53.264;6.592;2023-03-25T18:14:18;14.30;99.90
51996;DHT22;38010;53.264;6.592;2023-03-25T18:16:44;14.30;99.90
51996;DHT22;38010;53.264;6.592;2023-03-25T18:19:15;14.30;99.90
51996;DHT22;38010;53.264;6.592;2023-03-25T18:21:41;14.30;99.90
51996;DHT22;38010;53.264;6.592;2023-03-25T18:24:07;14.20;99.90
51996;DHT22;38010;53.264;6.592;2023-03-25T18:26:33;14.20;99.90
51996;DHT22;38010;53.264;6.592;2023-03-25T18:28:59;14.20;99.90
51996;DHT22;38010;53.264;6.592;2023-03-25T18:31:27;14.20;99.90
51996;DHT22;38010;53.264;6.592;2023-03-25T18:33:53;14.20;99.90
51996;DHT22;38010;53.264;6.592;2023-03-25T18:36:20;14.20;99.90
51996;DHT22;38010;53.264;6.592;2023-03-25T18:38:46;14.20;99.90
51996;DHT22;38010;53.264;6.592;2023-03-25T18:41:15;14.20;99.90
51996;DHT22;38010;53.264;6.592;2023-03-25T18:43:42;14.20;99.90
51996;DHT22;38010;53.264;6.592;2023-03-25T18:46:14;14.20;99.90
51996;DHT22;38010;53.264;6.592;2023-03-25T18:48:41;14.20;99.90
51996;DHT22;38010;53.264;6.592;2023-03-25T18:51:11;14.20;99.90
51996;DHT22;38010;53.264;6.592;2023-03-25T18:53:38;14.20;99.90
51996;DHT22;38010;53.264;6.592;2023-03-25T18:56:05;14.20;99.90
51996;DHT22;38010;53.264;6.592;2023-03-25T18:58:32;14.20;99.90
51996;DHT22;38010;53.264;6.592;2023-03-25T19:01:00;14.20;99.90
51996;DHT22;38010;53.264;6.592;2023-03-25T19:03:26;14.20;99.90
51996;DHT22;38010;53.264;6.592;2023-03-25T19:05:59;14.10;99.90
51996;DHT22;38010;53.264;6.592;2023-03-25T19:08:26;14.20;99.90
51996;DHT22;38010;53.264;6.592;2023-03-25T19:10:52;14.10;99.90
51996;DHT22;38010;53.264;6.592;2023-03-25T19:13:19;14.10;99.90
51996;DHT22;38010;53.264;6.592;2023-03-25T19:15:45;14.10;99.90
51996;DHT22;38010;53.264;6.592;2023-03-25T19:18:21;14.10;99.90
51996;DHT22;38010;53.264;6.592;2023-03-25T19:20:48;14.10;99.90
51996;DHT22;38010;53.264;6.592;2023-03-25T19:23:15;14.10;99.90